Time;durP1;ratioP1;P1;durP2;ratioP2;P2;SDS_P1;SDS_P2;PMS_P1;PMS_P2;Temp;Humidity;BMP_temperature;BMP_pressure;BME280_temperature;BME280_humidity;BME280_pressure;Samples;Min_cycle;Max_cycle;Signal;HPM_P1;HPM_P2
2023/03/27 00:00:26;;;;;;;;;;;21.20;54.00;;;;;;6212367;28;19916;-87
2023/03/27 00:03:30;;;;;;;;;;;19.60;55.00;;;;;;6211281;28;19998;-86
2023/03/27 00:06:33;;;;;;;;;;;21.30;53.50;;;;;;6205341;28;19922;-87
2023/03/27 00:09:38;;;;;;;;;;;21.00;52.50;;;;;;6223838;28;20025;-87
2023/03/27 00:12:43;;;;;;;;;;;21.20;52.60;;;;;;6212937;28;19905;-87
2023/03/27 00:15:46;;;;;;;;;;;21.10;53.10;;;;;;6230009;28;19912;-87
2023/03/27 00:18:48;;;;;;;;;;;20.60;52.00;;;;;;6214800;28;19924;-87
2023/03/27 00:21:50;;;;;;;;;;;19.90;53.30;;;;;;6343384;22;19905;-88
2023/03/27 00:28:49;;;;;;;;;;;20.80;51.00;;;;;;7386903;22;20843;31
2023/03/27 00:31:51;;;;;;;;;;;21.30;51.00;;;;;;6231506;28;19906;-43
2023/03/27 00:34:52;;;;;;;;;;;21.00;53.50;;;;;;6232074;28;19905;-37
2023/03/27 00:37:54;;;;;;;;;;;21.00;53.60;;;;;;6231598;28;19912;-37
2023/03/27 00:40:56;;;;;;;;;;;20.90;53.30;;;;;;6198497;28;19933;-37
2023/03/27 00:43:58;;;;;;;;;;;21.40;53.80;;;;;;6231299;28;19930;-37
2023/03/27 00:47:01;;;;;;;;;;;20.90;53.50;;;;;;6231136;28;19917;-37
2023/03/27 00:50:05;;;;;;;;;;;20.90;53.40;;;;;;6214981;28;19906;-37
2023/03/27 00:53:09;;;;;;;;;;;21.00;53.40;;;;;;6231237;28;19910;-37
2023/03/27 01:11:19;;;;;;;;;;;21.30;50.80;;;;;;6207240;28;19902;-37
2023/03/27 01:35:43;;;;;;;;;;;21.10;51.00;;;;;;7010534;23;19941;-37
2023/03/27 01:38:57;;;;;;;;;;;21.30;52.50;;;;;;6206728;28;19906;-38
2023/03/27 01:42:02;;;;;;;;;;;21.30;53.50;;;;;;6206735;28;19906;-38
2023/03/27 01:45:06;;;;;;;;;;;20.80;53.30;;;;;;6206889;28;19936;-38
2023/03/27 01:48:10;;;;;;;;;;;20.80;53.30;;;;;;6206565;28;19906;-38
2023/03/27 01:51:15;;;;;;;;;;;20.80;53.30;;;;;;6206669;28;19912;-38
2023/03/27 01:54:20;;;;;;;;;;;20.80;53.20;;;;;;6206758;28;19906;-38
2023/03/27 01:57:27;;;;;;;;;;;20.80;53.30;;;;;;6206716;28;19910;-37
2023/03/27 02:00:29;;;;;;;;;;;21.00;53.50;;;;;;6190548;28;19973;-38
2023/03/27 02:03:53;;;;;;;;;;;20.70;53.30;;;;;;6192738;28;19965;-38
2023/03/27 02:06:57;;;;;;;;;;;20.70;53.40;;;;;;6228541;23;19906;-39
2023/03/27 02:16:58;;;;;;;;;;;21.30;50.90;;;;;;6531598;23;19950;-40
2023/03/27 02:20:08;;;;;;;;;;;21.60;52.30;;;;;;6206265;28;19921;-38
2023/03/27 02:23:10;;;;;;;;;;;20.80;53.30;;;;;;6220177;23;19906;-38
2023/03/27 02:26:12;;;;;;;;;;;20.50;51.90;;;;;;6206156;28;19916;-38
2023/03/27 02:29:21;;;;;;;;;;;20.90;53.30;;;;;;6208303;28;19906;-38
2023/03/27 02:32:31;;;;;;;;;;;20.70;53.10;;;;;;6210413;28;19913;-38
2023/03/27 02:35:35;;;;;;;;;;;20.80;53.30;;;;;;6210448;28;19929;-38
2023/03/27 02:38:40;;;;;;;;;;;21.40;53.70;;;;;;6210292;28;19942;-38
2023/03/27 02:41:47;;;;;;;;;;;20.70;53.20;;;;;;6210263;28;19911;-38
2023/03/27 02:45:09;;;;;;;;;;;20.80;53.30;;;;;;6210053;28;19978;-38
2023/03/27 02:48:15;;;;;;;;;;;20.70;53.30;;;;;;6193827;28;19913;-38
2023/03/27 02:51:20;;;;;;;;;;;21.40;53.70;;;;;;6210048;28;19906;-38
2023/03/27 02:54:22;;;;;;;;;;;20.70;53.50;;;;;;6210003;28;19946;-38
2023/03/27 02:57:27;;;;;;;;;;;20.80;53.40;;;;;;6210012;28;19929;-38
2023/03/27 03:00:43;;;;;;;;;;;20.60;53.40;;;;;;6194816;28;19913;-37
2023/03/27 03:04:01;;;;;;;;;;;20.60;53.40;;;;;;6209842;28;19906;-37
2023/03/27 03:07:18;;;;;;;;;;;21.00;53.70;;;;;;6209690;28;19926;-38
2023/03/27 03:10:21;;;;;;;;;;;20.50;53.50;;;;;;6209570;28;19997;-38
2023/03/27 03:13:22;;;;;;;;;;;20.70;53.50;;;;;;6209486;28;19913;-38
2023/03/27 03:16:24;;;;;;;;;;;20.70;53.60;;;;;;6188026;28;19977;-50
2023/03/27 03:19:26;;;;;;;;;;;20.70;54.40;;;;;;6177686;28;19922;-53
2023/03/27 03:22:28;;;;;;;;;;;20.90;54.10;;;;;;6177742;28;19950;-53
2023/03/27 03:25:30;;;;;;;;;;;20.40;54.40;;;;;;6177566;28;19926;-54
2023/03/27 03:28:33;;;;;;;;;;;20.40;54.30;;;;;;6177282;28;19926;-53
2023/03/27 03:31:43;;;;;;;;;;;20.40;54.20;;;;;;6177568;28;19977;-53
2023/03/27 03:34:45;;;;;;;;;;;20.80;54.20;;;;;;6177710;28;19922;-52
2023/03/27 03:37:50;;;;;;;;;;;21.10;54.10;;;;;;6177251;28;20374;-53
2023/03/27 03:40:54;;;;;;;;;;;20.40;54.10;;;;;;6176515;28;19929;-52
2023/03/27 03:43:56;;;;;;;;;;;20.40;53.90;;;;;;6160324;28;20366;-52
2023/03/27 03:46:58;;;;;;;;;;;20.50;54.20;;;;;;6177017;28;19922;-50
2023/03/27 03:50:00;;;;;;;;;;;20.40;54.30;;;;;;6177368;28;19922;-51
2023/03/27 03:53:05;;;;;;;;;;;21.20;54.50;;;;;;6177209;28;19929;-50
2023/03/27 03:56:09;;;;;;;;;;;20.30;54.20;;;;;;6176976;28;19925;-52
2023/03/27 03:59:11;;;;;;;;;;;20.70;54.00;;;;;;6177470;28;19922;-54
2023/03/27 04:02:33;;;;;;;;;;;20.40;53.90;;;;;;6176780;28;20386;-51
2023/03/27 04:05:44;;;;;;;;;;;20.90;54.20;;;;;;6176848;28;20413;-52
2023/03/27 04:08:46;;;;;;;;;;;20.90;51.30;;;;;;6176496;28;19972;-50
2023/03/27 04:12:00;;;;;;;;;;;20.80;54.00;;;;;;6176442;28;19922;-54
2023/03/27 04:15:21;;;;;;;;;;;20.50;53.70;;;;;;6176615;28;20302;-47
2023/03/27 04:18:40;;;;;;;;;;;20.30;53.60;;;;;;6176373;28;19929;-53
2023/03/27 04:21:46;;;;;;;;;;;20.40;53.70;;;;;;6176691;28;19922;-52
2023/03/27 04:24:49;;;;;;;;;;;21.20;54.20;;;;;;6176380;28;20029;-52
2023/03/27 04:27:53;;;;;;;;;;;20.40;53.90;;;;;;6176206;28;19929;-52
2023/03/27 04:30:58;;;;;;;;;;;20.40;54.00;;;;;;6176628;28;19922;-50
2023/03/27 04:34:21;;;;;;;;;;;20.40;54.00;;;;;;6162376;28;19921;-51
2023/03/27 04:37:46;;;;;;;;;;;20.40;53.90;;;;;;6175964;28;19922;-53
2023/03/27 04:41:00;;;;;;;;;;;20.30;53.80;;;;;;6176413;28;19922;-50
2023/03/27 04:44:04;;;;;;;;;;;20.50;53.90;;;;;;6177928;28;19922;-53
2023/03/27 04:47:06;;;;;;;;;;;20.40;53.30;;;;;;6176371;28;19928;-51
2023/03/27 04:50:13;;;;;;;;;;;20.80;54.00;;;;;;6175890;28;19926;-52
2023/03/27 04:53:15;;;;;;;;;;;20.40;53.90;;;;;;6175897;28;19965;-49
2023/03/27 04:56:21;;;;;;;;;;;21.20;54.30;;;;;;6175840;28;19922;-52
2023/03/27 04:59:29;;;;;;;;;;;20.30;54.00;;;;;;6175748;28;19976;-51
2023/03/27 05:02:51;;;;;;;;;;;20.30;54.00;;;;;;6175451;28;19926;-53
2023/03/27 05:06:02;;;;;;;;;;;20.50;53.70;;;;;;6159469;28;19922;-51
2023/03/27 05:09:05;;;;;;;;;;;20.50;53.90;;;;;;6175902;28;19922;-51
2023/03/27 05:12:07;;;;;;;;;;;20.80;54.10;;;;;;6175522;28;19929;-54
2023/03/27 05:15:17;;;;;;;;;;;21.30;54.50;;;;;;6175473;28;19921;-51
2023/03/27 05:18:20;;;;;;;;;;;20.80;54.10;;;;;;6175729;28;19922;-50
2023/03/27 05:21:24;;;;;;;;;;;20.30;54.10;;;;;;6175418;28;20017;-52
2023/03/27 05:24:26;;;;;;;;;;;20.40;54.10;;;;;;6175258;28;20440;-53
2023/03/27 05:27:28;;;;;;;;;;;20.40;54.10;;;;;;6175417;28;19944;-52
2023/03/27 05:30:31;;;;;;;;;;;20.30;53.90;;;;;;6175286;28;19922;-52
2023/03/27 05:33:46;;;;;;;;;;;21.00;54.40;;;;;;6175101;28;19921;-53
2023/03/27 05:36:48;;;;;;;;;;;20.40;54.00;;;;;;6174914;28;20290;-51
2023/03/27 05:39:51;;;;;;;;;;;20.40;53.90;;;;;;6175490;28;19944;-53
2023/03/27 05:42:54;;;;;;;;;;;20.70;54.10;;;;;;6175603;28;19972;-52
2023/03/27 05:45:56;;;;;;;;;;;21.10;54.30;;;;;;6174752;28;20362;-50
2023/03/27 05:48:58;;;;;;;;;;;20.40;54.00;;;;;;6174983;28;19977;-51
2023/03/27 05:52:00;;;;;;;;;;;20.50;53.90;;;;;;6174854;28;20035;-54
2023/03/27 05:55:01;;;;;;;;;;;20.30;53.90;;;;;;6174678;28;20290;-53
2023/03/27 05:58:04;;;;;;;;;;;21.00;54.30;;;;;;6174914;28;20286;-51
2023/03/27 06:01:06;;;;;;;;;;;20.30;53.90;;;;;;6157836;28;19945;-48
2023/03/27 06:04:08;;;;;;;;;;;20.80;54.20;;;;;;6179273;28;19929;-53
2023/03/27 06:07:29;;;;;;;;;;;20.30;53.90;;;;;;6182686;28;19922;-51
2023/03/27 06:10:38;;;;;;;;;;;20.90;53.10;;;;;;6182325;28;19926;-50
2023/03/27 06:13:53;;;;;;;;;;;20.30;53.90;;;;;;6167073;28;20318;-52
2023/03/27 06:17:12;;;;;;;;;;;21.00;54.30;;;;;;6182526;28;19922;-53
2023/03/27 06:20:20;;;;;;;;;;;20.30;53.30;;;;;;6182465;28;19976;-53
2023/03/27 06:23:26;;;;;;;;;;;21.30;54.40;;;;;;6181916;28;19922;-53
2023/03/27 06:26:29;;;;;;;;;;;20.30;53.70;;;;;;6182319;28;20298;-53
2023/03/27 06:29:36;;;;;;;;;;;21.30;54.20;;;;;;6182247;28;20432;-53
2023/03/27 06:32:42;;;;;;;;;;;20.70;53.80;;;;;;6182197;28;19969;-53
2023/03/27 06:35:47;;;;;;;;;;;21.20;53.90;;;;;;6182754;28;19929;-52
2023/03/27 06:39:05;;;;;;;;;;;20.70;53.80;;;;;;6182274;28;20382;-54
2023/03/27 06:42:08;;;;;;;;;;;21.30;53.90;;;;;;6181967;28;19932;-52
2023/03/27 06:45:19;;;;;;;;;;;20.50;53.60;;;;;;6181964;28;19922;-53
2023/03/27 06:48:40;;;;;;;;;;;21.00;53.60;;;;;;6167051;28;19922;-52
2023/03/27 06:51:42;;;;;;;;;;;20.60;53.50;;;;;;6181727;28;19977;-54
2023/03/27 06:54:45;;;;;;;;;;;20.90;53.70;;;;;;6181789;28;20056;-54
2023/03/27 06:57:48;;;;;;;;;;;20.70;53.50;;;;;;6182084;28;19922;-54
2023/03/27 07:00:52;;;;;;;;;;;21.40;54.00;;;;;;6181970;28;20024;-50
2023/03/27 07:04:03;;;;;;;;;;;20.50;53.40;;;;;;6182039;28;19929;-54
2023/03/27 07:07:20;;;;;;;;;;;21.10;53.60;;;;;;6182181;28;19929;-51
2023/03/27 07:10:22;;;;;;;;;;;20.90;53.60;;;;;;6181828;28;19922;-53
2023/03/27 07:13:24;;;;;;;;;;;21.10;53.70;;;;;;6164347;28;19922;-52
2023/03/27 07:16:27;;;;;;;;;;;20.60;53.30;;;;;;6178235;28;19926;-54
2023/03/27 07:19:29;;;;;;;;;;;21.50;53.90;;;;;;6177523;28;19922;-52
2023/03/27 07:22:42;;;;;;;;;;;20.70;53.10;;;;;;6177015;28;20009;-48
2023/03/27 07:25:48;;;;;;;;;;;20.90;53.20;;;;;;6177330;28;19922;-48
2023/03/27 07:29:01;;;;;;;;;;;20.70;53.10;;;;;;6177498;28;20006;-50
2023/03/27 07:32:03;;;;;;;;;;;21.50;53.60;;;;;;6177021;28;20326;-53
2023/03/27 07:35:17;;;;;;;;;;;20.70;53.60;;;;;;6177210;28;19961;-49
2023/03/27 07:38:30;;;;;;;;;;;21.20;53.30;;;;;;6177218;28;20016;-55
2023/03/27 07:41:52;;;;;;;;;;;20.60;53.00;;;;;;6177212;28;19926;-50
2023/03/27 07:45:02;;;;;;;;;;;21.20;53.30;;;;;;6181543;28;19922;-54
2023/03/27 07:48:05;;;;;;;;;;;20.80;53.20;;;;;;6176828;28;20297;-55
2023/03/27 07:54:17;;;;;;;;;;;21.00;50.20;;;;;;6200998;28;19921;-83
2023/03/27 07:57:23;;;;;;;;;;;20.90;53.40;;;;;;6201780;28;20322;-83
2023/03/27 08:00:35;;;;;;;;;;;21.60;54.60;;;;;;6204081;28;20281;-83
2023/03/27 08:03:47;;;;;;;;;;;21.00;53.00;;;;;;6205254;28;19945;-83
2023/03/27 08:06:53;;;;;;;;;;;22.50;53.40;;;;;;6209312;28;19922;-83
2023/03/27 08:09:58;;;;;;;;;;;20.90;51.50;;;;;;6205451;28;19937;-84
2023/03/27 08:13:00;;;;;;;;;;;21.00;51.40;;;;;;6203890;28;19944;-84
2023/03/27 08:16:03;;;;;;;;;;;21.00;50.20;;;;;;6201497;28;19932;-83
2023/03/27 08:19:05;;;;;;;;;;;20.20;51.90;;;;;;6185239;28;20404;-84
2023/03/27 08:22:11;;;;;;;;;;;21.10;52.40;;;;;;6201473;28;19921;-83
2023/03/27 08:25:35;;;;;;;;;;;21.00;50.90;;;;;;6220131;28;19921;-84
2023/03/27 08:29:00;;;;;;;;;;;21.10;50.90;;;;;;6223794;28;19949;-83
2023/03/27 08:32:09;;;;;;;;;;;21.20;50.90;;;;;;6222590;28;19922;-84
2023/03/27 08:35:12;;;;;;;;;;;21.10;51.90;;;;;;6217750;28;20004;-83
2023/03/27 08:38:15;;;;;;;;;;;21.20;50.90;;;;;;6199777;28;19921;-84
2023/03/27 08:41:42;;;;;;;;;;;21.20;50.60;;;;;;6185293;28;19980;-85
2023/03/27 08:44:53;;;;;;;;;;;21.50;51.40;;;;;;6182248;28;19922;-82
2023/03/27 08:48:11;;;;;;;;;;;22.30;52.40;;;;;;6183796;28;19930;-83
2023/03/27 08:51:16;;;;;;;;;;;21.50;51.60;;;;;;6181065;28;20285;-83
2023/03/27 08:54:18;;;;;;;;;;;21.30;51.30;;;;;;6166978;28;19937;-83
2023/03/27 08:57:23;;;;;;;;;;;21.30;50.50;;;;;;6181659;28;19933;-83
2023/03/27 09:00:34;;;;;;;;;;;21.10;53.50;;;;;;6188322;28;19993;-84
2023/03/27 09:03:50;;;;;;;;;;;19.50;50.30;;;;;;6190854;28;19957;-84
2023/03/27 09:06:57;;;;;;;;;;;21.10;50.70;;;;;;6189509;28;20013;-83
2023/03/27 09:10:01;;;;;;;;;;;20.60;50.70;;;;;;6196153;28;19934;-82
2023/03/27 09:13:14;;;;;;;;;;;20.40;50.50;;;;;;6197359;28;19945;-84
2023/03/27 09:16:19;;;;;;;;;;;21.40;50.40;;;;;;6171429;28;19937;-83
2023/03/27 09:19:30;;;;;;;;;;;20.20;50.20;;;;;;6202499;28;19922;-83
2023/03/27 09:22:39;;;;;;;;;;;22.00;51.80;;;;;;6186132;28;19925;-83
2023/03/27 09:25:49;;;;;;;;;;;19.40;49.60;;;;;;6201725;28;20301;-82
2023/03/27 09:28:59;;;;;;;;;;;20.10;47.30;;;;;;6192663;28;19976;-83
2023/03/27 09:32:08;;;;;;;;;;;21.30;50.00;;;;;;6191776;28;19922;-82
2023/03/27 09:35:16;;;;;;;;;;;21.50;50.10;;;;;;6203917;28;19949;-82
2023/03/27 09:38:24;;;;;;;;;;;20.60;50.30;;;;;;6168632;28;20025;-82
2023/03/27 09:41:28;;;;;;;;;;;21.10;51.10;;;;;;6187953;28;19921;-82
2023/03/27 09:44:32;;;;;;;;;;;18.20;48.60;;;;;;6187397;28;19953;-83
2023/03/27 09:47:37;;;;;;;;;;;21.20;51.50;;;;;;6188850;28;19922;-83
2023/03/27 09:50:43;;;;;;;;;;;21.50;49.70;;;;;;6191209;28;19922;-82
2023/03/27 09:53:57;;;;;;;;;;;20.10;50.40;;;;;;6174883;28;19929;-82
2023/03/27 09:57:03;;;;;;;;;;;23.50;51.60;;;;;;6186392;28;19945;-82
2023/03/27 10:00:13;;;;;;;;;;;22.10;50.60;;;;;;6195642;28;19926;-82
2023/03/27 10:03:27;;;;;;;;;;;21.00;47.20;;;;;;6194383;28;19929;-82
2023/03/27 10:06:37;;;;;;;;;;;22.40;51.70;;;;;;6191887;28;20001;-84
2023/03/27 10:10:02;;;;;;;;;;;22.90;50.70;;;;;;6197399;28;19922;-82
2023/03/27 10:13:15;;;;;;;;;;;22.50;47.80;;;;;;6214999;28;19929;-83
2023/03/27 10:16:22;;;;;;;;;;;21.20;49.80;;;;;;6201533;28;19922;-83
2023/03/27 10:19:43;;;;;;;;;;;21.00;50.70;;;;;;6185378;28;20014;-82
2023/03/27 10:22:53;;;;;;;;;;;22.30;53.70;;;;;;6196501;28;19922;-84
2023/03/27 10:26:00;;;;;;;;;;;22.00;49.30;;;;;;6176410;28;19922;-84
2023/03/27 10:29:52;;;;;;;;;;;21.60;49.00;;;;;;6191339;28;19926;-83
2023/03/27 10:33:24;;;;;;;;;;;17.30;45.10;;;;;;6179916;28;19922;-83
2023/03/27 10:37:00;;;;;;;;;;;22.90;49.00;;;;;;6177304;28;19929;-83
2023/03/27 10:40:17;;;;;;;;;;;21.70;49.00;;;;;;6162513;28;19922;-83
2023/03/27 10:43:57;;;;;;;;;;;21.70;48.90;;;;;;6163227;28;20018;-83
2023/03/27 10:47:24;;;;;;;;;;;21.60;49.00;;;;;;6158014;28;20001;-83
2023/03/27 10:50:42;;;;;;;;;;;21.70;48.90;;;;;;6181160;28;19926;-83
2023/03/27 10:54:16;;;;;;;;;;;21.80;48.70;;;;;;6178235;28;19949;-83
2023/03/27 10:57:48;;;;;;;;;;;17.70;44.60;;;;;;6172583;28;20365;-82
2023/03/27 11:01:00;;;;;;;;;;;19.70;45.60;;;;;;6177721;28;19929;-83
2023/03/27 11:04:19;;;;;;;;;;;21.60;48.60;;;;;;6176578;28;19922;-83
2023/03/27 11:07:37;;;;;;;;;;;21.30;48.30;;;;;;6177653;28;19926;-83
2023/03/27 11:10:49;;;;;;;;;;;21.60;48.40;;;;;;6173556;28;19921;-83
2023/03/27 11:14:02;;;;;;;;;;;22.80;47.60;;;;;;6182334;28;19929;-83
2023/03/27 11:17:06;;;;;;;;;;;23.10;50.60;;;;;;6208933;28;19953;-83
2023/03/27 11:20:22;;;;;;;;;;;21.60;49.00;;;;;;6188835;28;19922;-83
2023/03/27 11:23:49;;;;;;;;;;;21.70;48.40;;;;;;6187901;28;19922;-83
2023/03/27 11:27:04;;;;;;;;;;;20.40;48.60;;;;;;6187144;28;19996;-83
2023/03/27 11:30:23;;;;;;;;;;;23.70;51.20;;;;;;6187945;28;19929;-83
2023/03/27 11:33:34;;;;;;;;;;;21.70;48.30;;;;;;6203134;28;20000;-83
2023/03/27 11:36:48;;;;;;;;;;;21.50;48.80;;;;;;6202970;28;19922;-83
2023/03/27 11:39:57;;;;;;;;;;;22.40;49.30;;;;;;6204134;28;20297;-83
2023/03/27 11:43:00;;;;;;;;;;;21.40;48.90;;;;;;6188975;28;19922;-83
2023/03/27 11:46:09;;;;;;;;;;;22.00;49.40;;;;;;6185589;28;20008;-83
2023/03/27 11:49:27;;;;;;;;;;;21.50;48.70;;;;;;6181151;28;19928;-83
2023/03/27 11:52:32;;;;;;;;;;;21.90;48.70;;;;;;6182613;28;19922;-83
2023/03/27 11:55:36;;;;;;;;;;;20.60;48.60;;;;;;6177277;28;19970;-83
2023/03/27 11:58:47;;;;;;;;;;;22.00;50.20;;;;;;6180614;28;20334;-84
2023/03/27 12:01:56;;;;;;;;;;;21.80;48.40;;;;;;6181541;28;19922;-84
2023/03/27 12:04:59;;;;;;;;;;;21.50;64.70;;;;;;6178893;28;19990;-84
2023/03/27 12:08:25;;;;;;;;;;;21.80;60.10;;;;;;6175854;28;19922;-86
2023/03/27 12:11:36;;;;;;;;;;;20.30;58.70;;;;;;6177134;28;19929;-87
2023/03/27 12:14:46;;;;;;;;;;;22.00;59.70;;;;;;6176736;28;19957;-86
2023/03/27 12:17:53;;;;;;;;;;;21.50;62.10;;;;;;6175361;28;20393;-86
2023/03/27 12:20:59;;;;;;;;;;;21.80;59.90;;;;;;6175318;28;19929;-86
2023/03/27 12:24:14;;;;;;;;;;;21.90;60.00;;;;;;6174506;28;20417;-86
2023/03/27 12:27:43;;;;;;;;;;;21.80;57.00;;;;;;6174302;28;19922;-86
2023/03/27 12:31:06;;;;;;;;;;;21.80;54.10;;;;;;6173672;28;19922;-86
2023/03/27 12:34:13;;;;;;;;;;;22.20;53.80;;;;;;6177738;28;19930;-86
2023/03/27 12:37:15;;;;;;;;;;;21.40;53.50;;;;;;6194510;28;19929;-87
2023/03/27 12:40:26;;;;;;;;;;;22.20;53.60;;;;;;6177354;28;19929;-87
2023/03/27 12:43:32;;;;;;;;;;;21.30;52.80;;;;;;6176538;28;19925;-86
2023/03/27 12:46:59;;;;;;;;;;;22.20;53.20;;;;;;6176999;28;19922;-86
2023/03/27 12:50:13;;;;;;;;;;;22.20;52.30;;;;;;6178207;28;20396;-86
2023/03/27 12:53:18;;;;;;;;;;;21.60;51.80;;;;;;6180240;28;19922;-86
2023/03/27 12:56:30;;;;;;;;;;;21.90;51.60;;;;;;6162434;28;19922;-87
2023/03/27 12:59:35;;;;;;;;;;;21.50;51.40;;;;;;6192586;28;20461;-86
2023/03/27 13:02:50;;;;;;;;;;;22.30;51.40;;;;;;6178189;28;19929;-86
2023/03/27 13:05:59;;;;;;;;;;;21.80;51.20;;;;;;6193238;28;20065;-86
2023/03/27 13:09:12;;;;;;;;;;;21.80;51.40;;;;;;6192301;28;19929;-86
2023/03/27 13:12:31;;;;;;;;;;;22.20;51.20;;;;;;6175879;28;20030;-86
2023/03/27 13:15:38;;;;;;;;;;;20.00;50.50;;;;;;6191790;28;19925;-85
2023/03/27 13:18:53;;;;;;;;;;;21.80;51.00;;;;;;6174358;28;20305;-86
2023/03/27 13:22:02;;;;;;;;;;;22.40;51.80;;;;;;6175196;28;20389;-86
2023/03/27 13:25:14;;;;;;;;;;;22.10;50.90;;;;;;6175344;28;19988;-86
2023/03/27 13:28:26;;;;;;;;;;;17.70;49.50;;;;;;6175205;28;20027;-84
2023/03/27 13:31:50;;;;;;;;;;;22.20;51.80;;;;;;6175080;28;19922;-83
2023/03/27 13:35:04;;;;;;;;;;;22.80;50.40;;;;;;6190833;28;20400;-82
2023/03/27 13:38:10;;;;;;;;;;;21.90;49.70;;;;;;6160529;28;19929;-83
2023/03/27 13:41:46;;;;;;;;;;;22.20;50.00;;;;;;6176216;28;19929;-83
2023/03/27 13:44:59;;;;;;;;;;;22.20;49.70;;;;;;6194155;28;20363;-83
2023/03/27 13:48:19;;;;;;;;;;;21.00;48.40;;;;;;6181800;28;20282;-83
2023/03/27 13:51:32;;;;;;;;;;;22.10;49.50;;;;;;6179240;28;19991;-85
2023/03/27 13:54:55;;;;;;;;;;;22.00;50.00;;;;;;6179888;28;19922;-84
2023/03/27 13:58:27;;;;;;;;;;;22.70;49.70;;;;;;6193351;28;19922;-85
2023/03/27 14:01:37;;;;;;;;;;;20.10;49.40;;;;;;6180522;28;19926;-85
2023/03/27 14:04:51;;;;;;;;;;;22.50;48.50;;;;;;6205622;28;19928;-84
2023/03/27 14:08:02;;;;;;;;;;;22.60;48.70;;;;;;6178835;28;20000;-85
2023/03/27 14:11:36;;;;;;;;;;;20.90;47.70;;;;;;6183144;28;19922;-85
2023/03/27 14:14:46;;;;;;;;;;;23.90;49.50;;;;;;6203585;28;19921;-86
2023/03/27 14:17:56;;;;;;;;;;;20.30;47.20;;;;;;6189981;28;19922;-85
2023/03/27 14:20:59;;;;;;;;;;;22.50;47.60;;;;;;6184415;28;19993;-83
2023/03/27 14:24:07;;;;;;;;;;;24.30;53.20;;;;;;6162627;28;19926;-84
2023/03/27 14:27:17;;;;;;;;;;;22.20;52.00;;;;;;6183008;28;20440;-84
2023/03/27 14:30:24;;;;;;;;;;;22.40;52.10;;;;;;6197791;28;20008;-85
2023/03/27 14:33:50;;;;;;;;;;;20.70;50.80;;;;;;6182899;28;19922;-84
2023/03/27 14:36:54;;;;;;;;;;;21.60;50.40;;;;;;6199650;28;19953;-84
2023/03/27 14:40:17;;;;;;;;;;;22.80;60.70;;;;;;6186836;28;19922;-84
2023/03/27 14:43:20;;;;;;;;;;;22.40;56.10;;;;;;6182199;28;20400;-84
2023/03/27 14:46:28;;;;;;;;;;;22.80;55.50;;;;;;6171944;28;19922;-83
2023/03/27 14:49:36;;;;;;;;;;;22.70;54.20;;;;;;6202083;28;19989;-83
2023/03/27 14:52:42;;;;;;;;;;;22.70;53.40;;;;;;6191047;28;20030;-83
2023/03/27 14:56:03;;;;;;;;;;;22.80;53.40;;;;;;6202478;28;20325;-83
2023/03/27 14:59:27;;;;;;;;;;;22.80;53.20;;;;;;6183186;28;19969;-83
2023/03/27 15:02:34;;;;;;;;;;;21.00;53.30;;;;;;6197062;28;19949;-83
2023/03/27 15:05:49;;;;;;;;;;;22.60;54.10;;;;;;6166952;28;19989;-84
2023/03/27 15:08:54;;;;;;;;;;;23.60;54.40;;;;;;6179843;28;19976;-84
2023/03/27 15:16:48;;;;;;;;;;;23.00;51.60;;;;;;6190025;28;19910;-84
2023/03/27 15:19:53;;;;;;;;;;;23.20;55.10;;;;;;6184955;28;19929;-83
2023/03/27 15:22:59;;;;;;;;;;;23.30;54.30;;;;;;6185811;28;20283;-84
2023/03/27 15:26:04;;;;;;;;;;;23.10;52.70;;;;;;6203226;28;20331;-84
2023/03/27 15:29:12;;;;;;;;;;;22.10;52.90;;;;;;6167898;28;19922;-83
2023/03/27 15:32:20;;;;;;;;;;;22.80;53.20;;;;;;6200557;28;20387;-84
2023/03/27 15:35:27;;;;;;;;;;;21.70;52.70;;;;;;6200202;28;19946;-85
2023/03/27 15:38:29;;;;;;;;;;;22.80;47.30;;;;;;6187138;28;19922;-85
2023/03/27 15:41:36;;;;;;;;;;;22.50;46.40;;;;;;6166793;28;19922;-84
2023/03/27 15:44:38;;;;;;;;;;;23.70;47.00;;;;;;6183084;28;19922;-83
2023/03/27 15:47:41;;;;;;;;;;;23.90;47.70;;;;;;6183995;28;19922;-84
2023/03/27 15:50:52;;;;;;;;;;;22.90;46.90;;;;;;6199897;28;20409;-85
2023/03/27 15:53:54;;;;;;;;;;;22.70;46.50;;;;;;6184135;28;19922;-84
2023/03/27 15:56:56;;;;;;;;;;;23.60;47.20;;;;;;6180703;28;19928;-85
2023/03/27 16:00:13;;;;;;;;;;;23.80;46.70;;;;;;6199231;28;20379;-83
2023/03/27 16:03:19;;;;;;;;;;;23.20;46.90;;;;;;6181132;28;19922;-83
2023/03/27 16:06:23;;;;;;;;;;;24.20;46.60;;;;;;6180023;28;19922;-83
2023/03/27 16:09:28;;;;;;;;;;;23.20;46.10;;;;;;6178655;28;20365;-83
2023/03/27 16:12:31;;;;;;;;;;;21.80;46.80;;;;;;6194108;28;19961;-84
2023/03/27 16:15:34;;;;;;;;;;;22.50;45.90;;;;;;6195186;28;19926;-83
2023/03/27 16:18:39;;;;;;;;;;;23.10;45.90;;;;;;6163269;28;20226;-84
2023/03/27 16:21:52;;;;;;;;;;;23.10;46.00;;;;;;6195807;28;20460;-83
2023/03/27 16:24:54;;;;;;;;;;;23.90;46.20;;;;;;6179419;28;20433;-83
2023/03/27 16:27:57;;;;;;;;;;;23.10;46.10;;;;;;6194579;28;19949;-84
2023/03/27 16:30:58;;;;;;;;;;;24.00;47.10;;;;;;6177647;28;20334;-83
2023/03/27 16:34:01;;;;;;;;;;;22.50;46.30;;;;;;6177528;28;19930;-83
2023/03/27 16:37:02;;;;;;;;;;;23.80;46.60;;;;;;6176770;28;20002;-83
2023/03/27 16:40:04;;;;;;;;;;;23.00;46.30;;;;;;6177705;28;20315;-83
2023/03/27 16:43:06;;;;;;;;;;;25.00;47.30;;;;;;6177813;28;20432;-83
2023/03/27 16:46:10;;;;;;;;;;;23.20;46.60;;;;;;6176257;28;19926;-83
2023/03/27 16:49:12;;;;;;;;;;;22.90;45.60;;;;;;6175044;28;19922;-84
2023/03/27 16:52:14;;;;;;;;;;;22.20;45.60;;;;;;6176860;28;19973;-83
2023/03/27 16:55:18;;;;;;;;;;;23.80;47.10;;;;;;6191277;28;20444;-83
2023/03/27 16:58:20;;;;;;;;;;;23.80;46.70;;;;;;6191601;28;19922;-83
2023/03/27 17:01:22;;;;;;;;;;;22.60;45.90;;;;;;6191757;28;19922;-83
2023/03/27 17:04:25;;;;;;;;;;;23.40;46.00;;;;;;6191909;28;20400;-83
2023/03/27 17:07:27;;;;;;;;;;;23.80;45.70;;;;;;6176331;28;20297;-84
2023/03/27 17:10:29;;;;;;;;;;;21.70;46.40;;;;;;6190881;28;20386;-83
2023/03/27 17:13:33;;;;;;;;;;;24.30;47.00;;;;;;6191036;28;20378;-83
2023/03/27 17:16:35;;;;;;;;;;;22.00;45.60;;;;;;6191781;28;20285;-83
2023/03/27 17:19:37;;;;;;;;;;;24.20;47.30;;;;;;6174974;28;20009;-83
2023/03/27 17:22:38;;;;;;;;;;;23.00;45.70;;;;;;6176741;28;19976;-83
2023/03/27 17:25:44;;;;;;;;;;;23.70;46.30;;;;;;6177100;28;19922;-84
2023/03/27 17:28:47;;;;;;;;;;;22.60;45.30;;;;;;6174291;28;19929;-83
2023/03/27 17:31:51;;;;;;;;;;;24.20;46.60;;;;;;6176402;28;20282;-83
2023/03/27 17:34:55;;;;;;;;;;;23.10;46.20;;;;;;6175195;28;19929;-83
2023/03/27 17:37:57;;;;;;;;;;;23.30;45.70;;;;;;6174365;28;19926;-83
2023/03/27 17:40:58;;;;;;;;;;;24.00;46.60;;;;;;6174571;28;19970;-83
2023/03/27 17:43:59;;;;;;;;;;;24.30;47.40;;;;;;6174668;28;19922;-84
2023/03/27 17:47:01;;;;;;;;;;;24.60;47.00;;;;;;6174157;28;19922;-83
2023/03/27 17:50:03;;;;;;;;;;;22.80;46.30;;;;;;6174378;28;19922;-83
2023/03/27 17:53:06;;;;;;;;;;;23.50;46.00;;;;;;6157957;28;19929;-84
2023/03/27 17:56:08;;;;;;;;;;;23.20;46.00;;;;;;6175244;28;19929;-83
2023/03/27 17:59:11;;;;;;;;;;;23.70;46.00;;;;;;6173605;28;19952;-83
2023/03/27 18:02:14;;;;;;;;;;;22.50;45.90;;;;;;6174086;28;19926;-84
2023/03/27 18:05:17;;;;;;;;;;;23.50;45.60;;;;;;6174173;28;19929;-83
2023/03/27 18:08:20;;;;;;;;;;;23.80;46.20;;;;;;6173616;28;19922;-83
2023/03/27 18:11:25;;;;;;;;;;;22.90;45.70;;;;;;6161226;28;19922;-83
2023/03/27 18:14:29;;;;;;;;;;;24.20;46.80;;;;;;6176422;28;20421;-83
2023/03/27 18:17:33;;;;;;;;;;;23.50;46.60;;;;;;6175347;28;20325;-83
2023/03/27 18:20:39;;;;;;;;;;;23.70;46.50;;;;;;6176628;28;19965;-83
2023/03/27 18:23:40;;;;;;;;;;;23.00;45.70;;;;;;6176406;28;19921;-83
2023/03/27 18:26:47;;;;;;;;;;;23.20;46.60;;;;;;6176733;28;19922;-83
2023/03/27 18:29:50;;;;;;;;;;;23.10;46.30;;;;;;6191798;28;19922;-85
2023/03/27 18:32:52;;;;;;;;;;;23.10;46.50;;;;;;6177070;28;20008;-85
2023/03/27 18:35:56;;;;;;;;;;;23.40;46.30;;;;;;6175851;28;19933;-86
2023/03/27 18:38:58;;;;;;;;;;;24.10;46.80;;;;;;6161476;28;19922;-85
2023/03/27 18:42:01;;;;;;;;;;;23.40;47.80;;;;;;6194197;28;19922;-86
2023/03/27 18:45:02;;;;;;;;;;;23.70;46.70;;;;;;6181832;28;19922;-85
2023/03/27 18:48:04;;;;;;;;;;;23.40;46.00;;;;;;6198154;28;19922;-88
2023/03/27 18:54:38;;;;;;;;;;;22.90;47.90;;;;;;6185360;28;19922;-85
2023/03/27 18:57:40;;;;;;;;;;;20.30;42.20;;;;;;6180556;28;19926;-86
2023/03/27 19:00:48;;;;;;;;;;;21.30;48.50;;;;;;6180956;28;19936;-86
2023/03/27 19:04:04;;;;;;;;;;;22.70;43.80;;;;;;6194890;28;19929;-85
2023/03/27 19:07:06;;;;;;;;;;;23.40;45.30;;;;;;6181248;28;19922;-86
2023/03/27 19:10:10;;;;;;;;;;;23.90;46.70;;;;;;6181123;28;19926;-85
2023/03/27 19:13:11;;;;;;;;;;;23.90;46.30;;;;;;6201263;28;19957;-86